sensor_id;sensor_type;location;lat;lon;timestamp;P1;durP1;ratioP1;P2;durP2;ratioP2
4971;SDS011;2501;51.214;6.768;2022-08-19T00:02:02;13.18;;;9.75;;
4971;SDS011;2501;51.214;6.768;2022-08-19T00:04:32;14.27;;;9.75;;
4971;SDS011;2501;51.214;6.768;2022-08-19T00:07:02;13.93;;;10.20;;
4971;SDS011;2501;51.214;6.768;2022-08-19T00:09:32;15.90;;;9.50;;
4971;SDS011;2501;51.214;6.768;2022-08-19T00:12:01;11.82;;;9.77;;
4971;SDS011;2501;51.214;6.768;2022-08-19T00:14:32;12.15;;;10.20;;
4971;SDS011;2501;51.214;6.768;2022-08-19T00:17:00;17.30;;;11.90;;
4971;SDS011;2501;51.214;6.768;2022-08-19T00:19:32;16.10;;;11.52;;
4971;SDS011;2501;51.214;6.768;2022-08-19T00:22:00;16.67;;;11.48;;
4971;SDS011;2501;51.214;6.768;2022-08-19T00:24:31;19.17;;;12.38;;
4971;SDS011;2501;51.214;6.768;2022-08-19T00:27:00;18.40;;;13.07;;
4971;SDS011;2501;51.214;6.768;2022-08-19T00:29:31;20.57;;;12.13;;
4971;SDS011;2501;51.214;6.768;2022-08-19T00:32:00;17.92;;;12.23;;
4971;SDS011;2501;51.214;6.768;2022-08-19T00:34:29;14.98;;;12.80;;
4971;SDS011;2501;51.214;6.768;2022-08-19T00:36:58;15.63;;;12.82;;
4971;SDS011;2501;51.214;6.768;2022-08-19T00:39:27;17.95;;;11.70;;
4971;SDS011;2501;51.214;6.768;2022-08-19T00:41:55;14.75;;;12.63;;
4971;SDS011;2501;51.214;6.768;2022-08-19T00:44:25;22.40;;;14.43;;
4971;SDS011;2501;51.214;6.768;2022-08-19T00:46:58;21.00;;;12.38;;
4971;SDS011;2501;51.214;6.768;2022-08-19T00:49:27;19.00;;;12.90;;
4971;SDS011;2501;51.214;6.768;2022-08-19T00:52:00;14.88;;;12.25;;
4971;SDS011;2501;51.214;6.768;2022-08-19T00:54:33;17.48;;;13.32;;
4971;SDS011;2501;51.214;6.768;2022-08-19T00:57:04;22.00;;;13.27;;
4971;SDS011;2501;51.214;6.768;2022-08-19T00:59:37;18.17;;;14.95;;
4971;SDS011;2501;51.214;6.768;2022-08-19T01:02:11;21.73;;;15.32;;
4971;SDS011;2501;51.214;6.768;2022-08-19T01:04:40;20.17;;;15.27;;
4971;SDS011;2501;51.214;6.768;2022-08-19T01:07:08;23.60;;;15.15;;
4971;SDS011;2501;51.214;6.768;2022-08-19T01:09:37;19.58;;;15.45;;
4971;SDS011;2501;51.214;6.768;2022-08-19T01:12:05;20.15;;;14.55;;
4971;SDS011;2501;51.214;6.768;2022-08-19T01:14:34;19.45;;;14.60;;
4971;SDS011;2501;51.214;6.768;2022-08-19T01:17:04;22.02;;;15.05;;
4971;SDS011;2501;51.214;6.768;2022-08-19T01:19:37;24.02;;;14.95;;
4971;SDS011;2501;51.214;6.768;2022-08-19T01:22:09;18.42;;;15.05;;
4971;SDS011;2501;51.214;6.768;2022-08-19T01:24:50;18.48;;;15.35;;
4971;SDS011;2501;51.214;6.768;2022-08-19T01:27:19;20.75;;;14.90;;
4971;SDS011;2501;51.214;6.768;2022-08-19T01:29:48;20.98;;;15.15;;
4971;SDS011;2501;51.214;6.768;2022-08-19T01:32:16;23.08;;;14.35;;
4971;SDS011;2501;51.214;6.768;2022-08-19T01:34:45;19.55;;;13.93;;
4971;SDS011;2501;51.214;6.768;2022-08-19T01:37:14;20.77;;;13.50;;
4971;SDS011;2501;51.214;6.768;2022-08-19T01:39:43;22.23;;;14.00;;
4971;SDS011;2501;51.214;6.768;2022-08-19T01:42:15;25.13;;;13.63;;
4971;SDS011;2501;51.214;6.768;2022-08-19T01:44:44;25.50;;;17.33;;
4971;SDS011;2501;51.214;6.768;2022-08-19T01:47:13;21.15;;;15.35;;
4971;SDS011;2501;51.214;6.768;2022-08-19T01:49:42;22.73;;;16.60;;
4971;SDS011;2501;51.214;6.768;2022-08-19T01:52:11;23.30;;;15.50;;
4971;SDS011;2501;51.214;6.768;2022-08-19T01:54:39;22.75;;;16.55;;
4971;SDS011;2501;51.214;6.768;2022-08-19T01:57:08;29.13;;;16.38;;
4971;SDS011;2501;51.214;6.768;2022-08-19T01:59:42;28.47;;;15.90;;
4971;SDS011;2501;51.214;6.768;2022-08-19T02:02:12;27.77;;;15.23;;
4971;SDS011;2501;51.214;6.768;2022-08-19T02:04:41;21.07;;;13.63;;
4971;SDS011;2501;51.214;6.768;2022-08-19T02:07:10;18.88;;;13.48;;
4971;SDS011;2501;51.214;6.768;2022-08-19T02:09:39;19.02;;;13.45;;
4971;SDS011;2501;51.214;6.768;2022-08-19T02:12:07;19.02;;;14.45;;
4971;SDS011;2501;51.214;6.768;2022-08-19T02:14:36;24.27;;;15.70;;
4971;SDS011;2501;51.214;6.768;2022-08-19T02:17:07;23.20;;;17.30;;
4971;SDS011;2501;51.214;6.768;2022-08-19T02:19:36;26.83;;;16.95;;
4971;SDS011;2501;51.214;6.768;2022-08-19T02:22:05;22.33;;;16.60;;
4971;SDS011;2501;51.214;6.768;2022-08-19T02:24:33;21.20;;;17.50;;
4971;SDS011;2501;51.214;6.768;2022-08-19T02:27:02;26.35;;;17.38;;
4971;SDS011;2501;51.214;6.768;2022-08-19T02:29:31;25.47;;;17.10;;
4971;SDS011;2501;51.214;6.768;2022-08-19T02:31:59;29.87;;;18.13;;
4971;SDS011;2501;51.214;6.768;2022-08-19T02:34:32;31.52;;;18.63;;
4971;SDS011;2501;51.214;6.768;2022-08-19T02:37:00;30.00;;;18.20;;
4971;SDS011;2501;51.214;6.768;2022-08-19T02:39:29;26.25;;;18.52;;
4971;SDS011;2501;51.214;6.768;2022-08-19T02:41:55;38.43;;;20.60;;
4971;SDS011;2501;51.214;6.768;2022-08-19T02:44:24;30.13;;;21.70;;
4971;SDS011;2501;51.214;6.768;2022-08-19T02:46:53;35.03;;;24.50;;
4971;SDS011;2501;51.214;6.768;2022-08-19T02:49:21;42.93;;;26.90;;
4971;SDS011;2501;51.214;6.768;2022-08-19T02:51:53;40.83;;;26.98;;
4971;SDS011;2501;51.214;6.768;2022-08-19T02:54:21;36.70;;;25.70;;
4971;SDS011;2501;51.214;6.768;2022-08-19T02:56:50;43.92;;;28.40;;
4971;SDS011;2501;51.214;6.768;2022-08-19T02:59:19;41.72;;;27.00;;
4971;SDS011;2501;51.214;6.768;2022-08-19T03:01:47;41.42;;;28.30;;
4971;SDS011;2501;51.214;6.768;2022-08-19T03:04:16;40.53;;;29.90;;
4971;SDS011;2501;51.214;6.768;2022-08-19T03:06:45;42.35;;;28.90;;
4971;SDS011;2501;51.214;6.768;2022-08-19T03:09:20;44.83;;;29.95;;
4971;SDS011;2501;51.214;6.768;2022-08-19T03:11:48;43.25;;;29.10;;
4971;SDS011;2501;51.214;6.768;2022-08-19T03:14:17;44.58;;;28.38;;
4971;SDS011;2501;51.214;6.768;2022-08-19T03:16:48;47.78;;;29.67;;
4971;SDS011;2501;51.214;6.768;2022-08-19T03:19:19;41.03;;;29.70;;
4971;SDS011;2501;51.214;6.768;2022-08-19T03:21:49;41.50;;;30.63;;
4971;SDS011;2501;51.214;6.768;2022-08-19T03:24:20;44.22;;;28.98;;
4971;SDS011;2501;51.214;6.768;2022-08-19T03:26:49;41.30;;;29.30;;
4971;SDS011;2501;51.214;6.768;2022-08-19T03:29:22;41.85;;;27.80;;
4971;SDS011;2501;51.214;6.768;2022-08-19T03:31:52;38.92;;;28.55;;
4971;SDS011;2501;51.214;6.768;2022-08-19T03:34:23;41.83;;;29.08;;
4971;SDS011;2501;51.214;6.768;2022-08-19T03:36:54;40.72;;;27.98;;
4971;SDS011;2501;51.214;6.768;2022-08-19T03:39:27;41.47;;;28.90;;
4971;SDS011;2501;51.214;6.768;2022-08-19T03:41:56;46.15;;;29.20;;
4971;SDS011;2501;51.214;6.768;2022-08-19T03:44:27;45.17;;;29.60;;
4971;SDS011;2501;51.214;6.768;2022-08-19T03:46:59;44.20;;;30.03;;
4971;SDS011;2501;51.214;6.768;2022-08-19T03:49:28;45.28;;;31.80;;
4971;SDS011;2501;51.214;6.768;2022-08-19T03:51:58;53.90;;;31.15;;
4971;SDS011;2501;51.214;6.768;2022-08-19T03:54:32;45.50;;;31.85;;
4971;SDS011;2501;51.214;6.768;2022-08-19T03:57:02;50.78;;;31.95;;
4971;SDS011;2501;51.214;6.768;2022-08-19T03:59:31;47.65;;;31.90;;
4971;SDS011;2501;51.214;6.768;2022-08-19T04:02:04;51.67;;;32.60;;
4971;SDS011;2501;51.214;6.768;2022-08-19T04:04:35;56.33;;;35.20;;
4971;SDS011;2501;51.214;6.768;2022-08-19T04:07:04;54.22;;;33.95;;
4971;SDS011;2501;51.214;6.768;2022-08-19T04:09:36;56.97;;;35.55;;
4971;SDS011;2501;51.214;6.768;2022-08-19T04:12:05;53.38;;;36.00;;
4971;SDS011;2501;51.214;6.768;2022-08-19T04:14:34;57.00;;;35.93;;
4971;SDS011;2501;51.214;6.768;2022-08-19T04:17:03;58.83;;;35.75;;
4971;SDS011;2501;51.214;6.768;2022-08-19T04:19:32;56.50;;;36.58;;
4971;SDS011;2501;51.214;6.768;2022-08-19T04:22:03;55.75;;;35.63;;
4971;SDS011;2501;51.214;6.768;2022-08-19T04:24:35;56.33;;;36.63;;
4971;SDS011;2501;51.214;6.768;2022-08-19T04:27:05;61.17;;;35.70;;
4971;SDS011;2501;51.214;6.768;2022-08-19T04:29:33;52.80;;;36.63;;
4971;SDS011;2501;51.214;6.768;2022-08-19T04:32:04;59.47;;;37.78;;
4971;SDS011;2501;51.214;6.768;2022-08-19T04:34:34;57.20;;;38.50;;
4971;SDS011;2501;51.214;6.768;2022-08-19T04:37:05;65.72;;;41.70;;
4971;SDS011;2501;51.214;6.768;2022-08-19T04:39:39;69.45;;;42.78;;
4971;SDS011;2501;51.214;6.768;2022-08-19T04:42:20;67.00;;;43.28;;
4971;SDS011;2501;51.214;6.768;2022-08-19T04:45:02;70.72;;;42.17;;
4971;SDS011;2501;51.214;6.768;2022-08-19T04:47:30;79.30;;;44.60;;
4971;SDS011;2501;51.214;6.768;2022-08-19T04:49:59;74.50;;;45.45;;
4971;SDS011;2501;51.214;6.768;2022-08-19T04:52:28;81.30;;;46.90;;
4971;SDS011;2501;51.214;6.768;2022-08-19T04:54:59;79.20;;;46.33;;
4971;SDS011;2501;51.214;6.768;2022-08-19T04:57:27;72.22;;;43.88;;
4971;SDS011;2501;51.214;6.768;2022-08-19T04:59:56;73.38;;;44.63;;
4971;SDS011;2501;51.214;6.768;2022-08-19T05:02:24;74.28;;;44.17;;
4971;SDS011;2501;51.214;6.768;2022-08-19T05:04:58;69.03;;;42.63;;
4971;SDS011;2501;51.214;6.768;2022-08-19T05:07:27;67.72;;;41.53;;
4971;SDS011;2501;51.214;6.768;2022-08-19T05:09:59;65.65;;;40.33;;
4971;SDS011;2501;51.214;6.768;2022-08-19T05:12:30;70.00;;;42.17;;
4971;SDS011;2501;51.214;6.768;2022-08-19T05:14:59;63.10;;;42.20;;
4971;SDS011;2501;51.214;6.768;2022-08-19T05:17:28;66.95;;;43.33;;
4971;SDS011;2501;51.214;6.768;2022-08-19T05:19:56;70.40;;;42.63;;
4971;SDS011;2501;51.214;6.768;2022-08-19T05:22:37;71.03;;;41.40;;
4971;SDS011;2501;51.214;6.768;2022-08-19T05:25:10;66.37;;;42.53;;
4971;SDS011;2501;51.214;6.768;2022-08-19T05:27:40;67.68;;;43.17;;
4971;SDS011;2501;51.214;6.768;2022-08-19T05:30:10;69.15;;;44.05;;
4971;SDS011;2501;51.214;6.768;2022-08-19T05:32:40;70.28;;;44.53;;
4971;SDS011;2501;51.214;6.768;2022-08-19T05:35:09;76.38;;;44.08;;
4971;SDS011;2501;51.214;6.768;2022-08-19T05:37:38;68.03;;;43.03;;
4971;SDS011;2501;51.214;6.768;2022-08-19T05:40:10;79.20;;;49.10;;
4971;SDS011;2501;51.214;6.768;2022-08-19T05:42:39;71.53;;;44.05;;
4971;SDS011;2501;51.214;6.768;2022-08-19T05:45:08;69.30;;;45.28;;
4971;SDS011;2501;51.214;6.768;2022-08-19T05:47:37;65.43;;;44.67;;
4971;SDS011;2501;51.214;6.768;2022-08-19T05:50:10;67.40;;;44.75;;
4971;SDS011;2501;51.214;6.768;2022-08-19T05:52:38;75.25;;;45.55;;
4971;SDS011;2501;51.214;6.768;2022-08-19T05:55:10;73.00;;;45.08;;
4971;SDS011;2501;51.214;6.768;2022-08-19T05:57:48;75.35;;;43.80;;
4971;SDS011;2501;51.214;6.768;2022-08-19T06:00:17;68.38;;;41.33;;
4971;SDS011;2501;51.214;6.768;2022-08-19T06:02:46;78.72;;;43.03;;
4971;SDS011;2501;51.214;6.768;2022-08-19T06:05:14;71.90;;;43.15;;
4971;SDS011;2501;51.214;6.768;2022-08-19T06:07:43;73.63;;;42.65;;
4971;SDS011;2501;51.214;6.768;2022-08-19T06:10:14;71.10;;;42.37;;
4971;SDS011;2501;51.214;6.768;2022-08-19T06:12:42;80.18;;;40.78;;
4971;SDS011;2501;51.214;6.768;2022-08-19T06:15:12;69.47;;;39.58;;
4971;SDS011;2501;51.214;6.768;2022-08-19T06:17:42;72.57;;;42.05;;
4971;SDS011;2501;51.214;6.768;2022-08-19T06:20:13;74.80;;;40.55;;
4971;SDS011;2501;51.214;6.768;2022-08-19T06:22:44;70.10;;;42.07;;
4971;SDS011;2501;51.214;6.768;2022-08-19T06:25:19;66.82;;;41.78;;
4971;SDS011;2501;51.214;6.768;2022-08-19T06:27:47;80.72;;;42.35;;
4971;SDS011;2501;51.214;6.768;2022-08-19T06:30:16;66.72;;;41.03;;
4971;SDS011;2501;51.214;6.768;2022-08-19T06:32:45;68.60;;;40.78;;
4971;SDS011;2501;51.214;6.768;2022-08-19T06:35:13;68.23;;;39.77;;
4971;SDS011;2501;51.214;6.768;2022-08-19T06:37:41;66.63;;;37.83;;
4971;SDS011;2501;51.214;6.768;2022-08-19T06:40:11;66.07;;;39.05;;
4971;SDS011;2501;51.214;6.768;2022-08-19T06:42:42;73.72;;;41.50;;
4971;SDS011;2501;51.214;6.768;2022-08-19T06:45:11;58.83;;;38.08;;
4971;SDS011;2501;51.214;6.768;2022-08-19T06:47:39;65.28;;;40.78;;
4971;SDS011;2501;51.214;6.768;2022-08-19T06:50:13;72.10;;;44.40;;
4971;SDS011;2501;51.214;6.768;2022-08-19T06:52:41;69.70;;;42.25;;
4971;SDS011;2501;51.214;6.768;2022-08-19T06:55:11;72.80;;;41.30;;
4971;SDS011;2501;51.214;6.768;2022-08-19T06:57:43;69.10;;;42.95;;
4971;SDS011;2501;51.214;6.768;2022-08-19T07:00:13;69.50;;;41.45;;
4971;SDS011;2501;51.214;6.768;2022-08-19T07:02:42;64.13;;;38.90;;
4971;SDS011;2501;51.214;6.768;2022-08-19T07:05:11;70.63;;;40.80;;
4971;SDS011;2501;51.214;6.768;2022-08-19T07:07:40;71.38;;;40.20;;
4971;SDS011;2501;51.214;6.768;2022-08-19T07:10:09;66.30;;;37.47;;
4971;SDS011;2501;51.214;6.768;2022-08-19T07:12:37;58.72;;;36.90;;
4971;SDS011;2501;51.214;6.768;2022-08-19T07:15:09;66.30;;;36.58;;
4971;SDS011;2501;51.214;6.768;2022-08-19T07:17:39;55.50;;;31.27;;
4971;SDS011;2501;51.214;6.768;2022-08-19T07:20:09;59.45;;;33.42;;
4971;SDS011;2501;51.214;6.768;2022-08-19T07:22:39;56.22;;;33.00;;
4971;SDS011;2501;51.214;6.768;2022-08-19T07:25:08;54.37;;;32.57;;
4971;SDS011;2501;51.214;6.768;2022-08-19T07:27:38;53.20;;;31.83;;
4971;SDS011;2501;51.214;6.768;2022-08-19T07:30:10;51.58;;;30.42;;
4971;SDS011;2501;51.214;6.768;2022-08-19T07:32:40;49.55;;;30.00;;
4971;SDS011;2501;51.214;6.768;2022-08-19T07:35:09;54.67;;;30.40;;
4971;SDS011;2501;51.214;6.768;2022-08-19T07:37:37;52.03;;;29.30;;
4971;SDS011;2501;51.214;6.768;2022-08-19T07:40:09;44.25;;;26.63;;
4971;SDS011;2501;51.214;6.768;2022-08-19T07:42:39;42.45;;;25.75;;
4971;SDS011;2501;51.214;6.768;2022-08-19T07:45:11;42.47;;;25.10;;
4971;SDS011;2501;51.214;6.768;2022-08-19T07:47:41;36.55;;;23.95;;
4971;SDS011;2501;51.214;6.768;2022-08-19T07:50:09;43.10;;;23.70;;
4971;SDS011;2501;51.214;6.768;2022-08-19T07:52:39;41.10;;;21.63;;
4971;SDS011;2501;51.214;6.768;2022-08-19T07:55:09;35.90;;;22.90;;
4971;SDS011;2501;51.214;6.768;2022-08-19T07:57:38;40.67;;;22.77;;
4971;SDS011;2501;51.214;6.768;2022-08-19T08:00:07;37.88;;;20.40;;
4971;SDS011;2501;51.214;6.768;2022-08-19T08:02:39;36.03;;;19.77;;
4971;SDS011;2501;51.214;6.768;2022-08-19T08:05:08;33.70;;;21.63;;
4971;SDS011;2501;51.214;6.768;2022-08-19T08:07:49;37.30;;;23.63;;
4971;SDS011;2501;51.214;6.768;2022-08-19T08:10:30;47.33;;;27.75;;
4971;SDS011;2501;51.214;6.768;2022-08-19T08:12:58;45.83;;;26.80;;
4971;SDS011;2501;51.214;6.768;2022-08-19T08:15:30;55.95;;;29.25;;
4971;SDS011;2501;51.214;6.768;2022-08-19T08:18:02;50.70;;;27.70;;
4971;SDS011;2501;51.214;6.768;2022-08-19T08:20:31;54.40;;;33.00;;
4971;SDS011;2501;51.214;6.768;2022-08-19T08:23:00;61.85;;;32.28;;
4971;SDS011;2501;51.214;6.768;2022-08-19T08:25:41;62.57;;;32.90;;
4971;SDS011;2501;51.214;6.768;2022-08-19T08:28:09;65.67;;;35.63;;
4971;SDS011;2501;51.214;6.768;2022-08-19T08:30:38;70.87;;;38.27;;
4971;SDS011;2501;51.214;6.768;2022-08-19T08:33:10;61.97;;;35.45;;
4971;SDS011;2501;51.214;6.768;2022-08-19T08:35:39;62.95;;;34.53;;
4971;SDS011;2501;51.214;6.768;2022-08-19T08:38:10;63.15;;;35.88;;
4971;SDS011;2501;51.214;6.768;2022-08-19T08:40:42;63.78;;;35.35;;
4971;SDS011;2501;51.214;6.768;2022-08-19T08:43:18;66.78;;;32.13;;
4971;SDS011;2501;51.214;6.768;2022-08-19T08:45:52;63.35;;;32.90;;
4971;SDS011;2501;51.214;6.768;2022-08-19T08:48:34;59.70;;;31.17;;
4971;SDS011;2501;51.214;6.768;2022-08-19T08:51:07;60.23;;;30.90;;
4971;SDS011;2501;51.214;6.768;2022-08-19T08:53:38;54.30;;;30.02;;
4971;SDS011;2501;51.214;6.768;2022-08-19T08:56:09;60.50;;;28.10;;
4971;SDS011;2501;51.214;6.768;2022-08-19T08:58:41;53.10;;;29.85;;
4971;SDS011;2501;51.214;6.768;2022-08-19T09:01:16;55.60;;;30.17;;
4971;SDS011;2501;51.214;6.768;2022-08-19T09:03:48;60.60;;;29.95;;
4971;SDS011;2501;51.214;6.768;2022-08-19T09:06:18;57.80;;;33.57;;
4971;SDS011;2501;51.214;6.768;2022-08-19T09:08:55;55.40;;;30.30;;
4971;SDS011;2501;51.214;6.768;2022-08-19T09:11:33;45.78;;;24.88;;
4971;SDS011;2501;51.214;6.768;2022-08-19T09:14:15;40.80;;;24.33;;
4971;SDS011;2501;51.214;6.768;2022-08-19T09:16:51;56.88;;;25.50;;
4971;SDS011;2501;51.214;6.768;2022-08-19T09:19:22;49.45;;;26.27;;
4971;SDS011;2501;51.214;6.768;2022-08-19T09:21:51;45.72;;;27.48;;
4971;SDS011;2501;51.214;6.768;2022-08-19T09:24:19;47.70;;;26.10;;
4971;SDS011;2501;51.214;6.768;2022-08-19T09:26:48;37.27;;;23.20;;
4971;SDS011;2501;51.214;6.768;2022-08-19T09:29:16;31.43;;;19.07;;
4971;SDS011;2501;51.214;6.768;2022-08-19T09:31:45;33.65;;;20.27;;
4971;SDS011;2501;51.214;6.768;2022-08-19T09:34:14;40.47;;;23.55;;
4971;SDS011;2501;51.214;6.768;2022-08-19T09:36:47;44.45;;;24.30;;
4971;SDS011;2501;51.214;6.768;2022-08-19T09:39:20;36.05;;;21.95;;
4971;SDS011;2501;51.214;6.768;2022-08-19T09:41:49;61.45;;;23.13;;
4971;SDS011;2501;51.214;6.768;2022-08-19T09:44:18;35.45;;;20.08;;
4971;SDS011;2501;51.214;6.768;2022-08-19T09:46:46;38.70;;;20.20;;
4971;SDS011;2501;51.214;6.768;2022-08-19T09:49:16;52.72;;;24.80;;
4971;SDS011;2501;51.214;6.768;2022-08-19T09:51:51;37.07;;;20.50;;
4971;SDS011;2501;51.214;6.768;2022-08-19T09:54:21;37.85;;;22.20;;
4971;SDS011;2501;51.214;6.768;2022-08-19T09:56:50;32.30;;;21.20;;
4971;SDS011;2501;51.214;6.768;2022-08-19T09:59:19;38.72;;;21.40;;
4971;SDS011;2501;51.214;6.768;2022-08-19T10:01:48;36.40;;;20.30;;
4971;SDS011;2501;51.214;6.768;2022-08-19T10:04:16;36.70;;;21.15;;
4971;SDS011;2501;51.214;6.768;2022-08-19T10:06:46;31.08;;;18.40;;
4971;SDS011;2501;51.214;6.768;2022-08-19T10:09:19;34.28;;;18.98;;
4971;SDS011;2501;51.214;6.768;2022-08-19T10:11:48;39.50;;;19.85;;
4971;SDS011;2501;51.214;6.768;2022-08-19T10:14:16;30.73;;;18.65;;
4971;SDS011;2501;51.214;6.768;2022-08-19T10:16:47;31.43;;;18.80;;
4971;SDS011;2501;51.214;6.768;2022-08-19T10:19:16;27.35;;;17.60;;
4971;SDS011;2501;51.214;6.768;2022-08-19T10:21:45;26.50;;;16.03;;
4971;SDS011;2501;51.214;6.768;2022-08-19T10:24:13;30.90;;;18.33;;
4971;SDS011;2501;51.214;6.768;2022-08-19T10:26:45;30.08;;;19.25;;
4971;SDS011;2501;51.214;6.768;2022-08-19T10:29:13;34.13;;;16.70;;
4971;SDS011;2501;51.214;6.768;2022-08-19T10:31:42;34.95;;;17.55;;
4971;SDS011;2501;51.214;6.768;2022-08-19T10:34:12;29.77;;;18.05;;
4971;SDS011;2501;51.214;6.768;2022-08-19T10:36:41;26.25;;;16.38;;
4971;SDS011;2501;51.214;6.768;2022-08-19T10:39:10;24.57;;;15.40;;
4971;SDS011;2501;51.214;6.768;2022-08-19T10:41:39;25.73;;;13.60;;
4971;SDS011;2501;51.214;6.768;2022-08-19T10:44:12;30.07;;;13.80;;
4971;SDS011;2501;51.214;6.768;2022-08-19T10:46:42;20.02;;;12.50;;
4971;SDS011;2501;51.214;6.768;2022-08-19T10:49:12;20.17;;;12.93;;
4971;SDS011;2501;51.214;6.768;2022-08-19T10:51:41;18.10;;;11.30;;
4971;SDS011;2501;51.214;6.768;2022-08-19T10:54:22;17.35;;;12.00;;
4971;SDS011;2501;51.214;6.768;2022-08-19T10:57:12;18.10;;;12.45;;
4971;SDS011;2501;51.214;6.768;2022-08-19T10:59:41;16.30;;;11.40;;
4971;SDS011;2501;51.214;6.768;2022-08-19T11:02:10;21.95;;;12.30;;
4971;SDS011;2501;51.214;6.768;2022-08-19T11:04:39;18.90;;;12.15;;
4971;SDS011;2501;51.214;6.768;2022-08-19T11:07:08;17.88;;;11.95;;
4971;SDS011;2501;51.214;6.768;2022-08-19T11:09:38;23.25;;;12.95;;
4971;SDS011;2501;51.214;6.768;2022-08-19T11:12:08;22.90;;;11.38;;
4971;SDS011;2501;51.214;6.768;2022-08-19T11:14:37;20.42;;;13.27;;
4971;SDS011;2501;51.214;6.768;2022-08-19T11:17:08;19.33;;;13.20;;
4971;SDS011;2501;51.214;6.768;2022-08-19T11:19:38;20.52;;;12.48;;
4971;SDS011;2501;51.214;6.768;2022-08-19T11:22:07;20.20;;;11.20;;
4971;SDS011;2501;51.214;6.768;2022-08-19T11:24:37;21.50;;;12.63;;
4971;SDS011;2501;51.214;6.768;2022-08-19T11:27:06;21.70;;;14.70;;
4971;SDS011;2501;51.214;6.768;2022-08-19T11:29:38;27.02;;;13.38;;
4971;SDS011;2501;51.214;6.768;2022-08-19T11:32:09;26.48;;;14.27;;
4971;SDS011;2501;51.214;6.768;2022-08-19T11:34:38;16.05;;;12.15;;
4971;SDS011;2501;51.214;6.768;2022-08-19T11:37:07;17.08;;;9.95;;
4971;SDS011;2501;51.214;6.768;2022-08-19T11:39:35;13.02;;;9.10;;
4971;SDS011;2501;51.214;6.768;2022-08-19T11:42:05;17.77;;;9.70;;
4971;SDS011;2501;51.214;6.768;2022-08-19T11:44:47;15.10;;;9.02;;
4971;SDS011;2501;51.214;6.768;2022-08-19T11:47:18;16.52;;;10.00;;
4971;SDS011;2501;51.214;6.768;2022-08-19T11:49:47;14.77;;;10.90;;
4971;SDS011;2501;51.214;6.768;2022-08-19T11:52:19;14.45;;;9.80;;
4971;SDS011;2501;51.214;6.768;2022-08-19T11:54:50;19.58;;;9.43;;
4971;SDS011;2501;51.214;6.768;2022-08-19T11:57:19;12.48;;;8.88;;
4971;SDS011;2501;51.214;6.768;2022-08-19T11:59:48;17.75;;;10.50;;
4971;SDS011;2501;51.214;6.768;2022-08-19T12:02:20;15.00;;;9.82;;
4971;SDS011;2501;51.214;6.768;2022-08-19T12:04:48;23.75;;;8.75;;
4971;SDS011;2501;51.214;6.768;2022-08-19T12:07:17;14.48;;;8.80;;
4971;SDS011;2501;51.214;6.768;2022-08-19T12:09:46;14.15;;;9.32;;
4971;SDS011;2501;51.214;6.768;2022-08-19T12:12:15;17.90;;;9.30;;
4971;SDS011;2501;51.214;6.768;2022-08-19T12:14:44;13.48;;;8.68;;
4971;SDS011;2501;51.214;6.768;2022-08-19T12:17:12;18.00;;;7.65;;
4971;SDS011;2501;51.214;6.768;2022-08-19T12:19:43;12.80;;;8.70;;
4971;SDS011;2501;51.214;6.768;2022-08-19T12:22:12;15.13;;;8.57;;
4971;SDS011;2501;51.214;6.768;2022-08-19T12:24:40;15.10;;;7.50;;
4971;SDS011;2501;51.214;6.768;2022-08-19T12:27:09;16.37;;;8.63;;
4971;SDS011;2501;51.214;6.768;2022-08-19T12:29:37;30.45;;;9.65;;
4971;SDS011;2501;51.214;6.768;2022-08-19T12:32:06;15.60;;;9.20;;
4971;SDS011;2501;51.214;6.768;2022-08-19T12:34:35;25.80;;;9.93;;
4971;SDS011;2501;51.214;6.768;2022-08-19T12:37:06;14.57;;;8.50;;
4971;SDS011;2501;51.214;6.768;2022-08-19T12:39:37;13.57;;;7.90;;
4971;SDS011;2501;51.214;6.768;2022-08-19T12:42:07;12.13;;;8.70;;
4971;SDS011;2501;51.214;6.768;2022-08-19T12:44:36;12.23;;;7.68;;
4971;SDS011;2501;51.214;6.768;2022-08-19T12:47:06;15.50;;;8.55;;
4971;SDS011;2501;51.214;6.768;2022-08-19T12:49:35;8.07;;;7.28;;
4971;SDS011;2501;51.214;6.768;2022-08-19T12:52:07;9.60;;;7.60;;
4971;SDS011;2501;51.214;6.768;2022-08-19T12:54:40;10.37;;;7.17;;
4971;SDS011;2501;51.214;6.768;2022-08-19T12:57:08;11.60;;;7.30;;
4971;SDS011;2501;51.214;6.768;2022-08-19T12:59:38;9.20;;;7.33;;
4971;SDS011;2501;51.214;6.768;2022-08-19T13:02:07;11.07;;;7.13;;
4971;SDS011;2501;51.214;6.768;2022-08-19T13:04:36;10.85;;;7.10;;
4971;SDS011;2501;51.214;6.768;2022-08-19T13:07:08;11.73;;;7.93;;
4971;SDS011;2501;51.214;6.768;2022-08-19T13:09:37;13.15;;;7.40;;
4971;SDS011;2501;51.214;6.768;2022-08-19T13:12:07;9.30;;;6.88;;
4971;SDS011;2501;51.214;6.768;2022-08-19T13:14:38;10.02;;;6.40;;
4971;SDS011;2501;51.214;6.768;2022-08-19T13:17:07;9.38;;;6.90;;
4971;SDS011;2501;51.214;6.768;2022-08-19T13:19:36;10.45;;;6.25;;
4971;SDS011;2501;51.214;6.768;2022-08-19T13:22:08;9.35;;;6.35;;
4971;SDS011;2501;51.214;6.768;2022-08-19T13:24:37;6.30;;;5.70;;
4971;SDS011;2501;51.214;6.768;2022-08-19T13:27:05;5.80;;;5.30;;
4971;SDS011;2501;51.214;6.768;2022-08-19T13:29:34;8.00;;;5.60;;
4971;SDS011;2501;51.214;6.768;2022-08-19T13:32:30;12.85;;;5.57;;
4971;SDS011;2501;51.214;6.768;2022-08-19T13:35:11;8.48;;;5.30;;
4971;SDS011;2501;51.214;6.768;2022-08-19T13:37:42;8.35;;;6.47;;
4971;SDS011;2501;51.214;6.768;2022-08-19T13:40:12;6.85;;;6.00;;
4971;SDS011;2501;51.214;6.768;2022-08-19T13:42:44;9.35;;;5.93;;
4971;SDS011;2501;51.214;6.768;2022-08-19T13:45:14;7.35;;;5.75;;
4971;SDS011;2501;51.214;6.768;2022-08-19T13:47:45;7.80;;;5.35;;
4971;SDS011;2501;51.214;6.768;2022-08-19T13:50:15;7.40;;;6.38;;
4971;SDS011;2501;51.214;6.768;2022-08-19T13:52:47;6.32;;;5.10;;
4971;SDS011;2501;51.214;6.768;2022-08-19T13:55:16;7.00;;;5.30;;
4971;SDS011;2501;51.214;6.768;2022-08-19T13:57:44;5.95;;;5.00;;
4971;SDS011;2501;51.214;6.768;2022-08-19T14:00:14;11.07;;;5.10;;
4971;SDS011;2501;51.214;6.768;2022-08-19T14:02:45;8.75;;;5.18;;
4971;SDS011;2501;51.214;6.768;2022-08-19T14:05:15;4.10;;;3.70;;
4971;SDS011;2501;51.214;6.768;2022-08-19T14:07:43;5.80;;;4.40;;
4971;SDS011;2501;51.214;6.768;2022-08-19T14:10:15;4.40;;;4.00;;
4971;SDS011;2501;51.214;6.768;2022-08-19T14:12:45;7.68;;;3.92;;
4971;SDS011;2501;51.214;6.768;2022-08-19T14:15:15;4.20;;;3.80;;
4971;SDS011;2501;51.214;6.768;2022-08-19T14:17:44;4.43;;;4.03;;
4971;SDS011;2501;51.214;6.768;2022-08-19T14:20:14;5.30;;;4.32;;
4971;SDS011;2501;51.214;6.768;2022-08-19T14:22:44;4.20;;;3.90;;
4971;SDS011;2501;51.214;6.768;2022-08-19T14:25:16;6.03;;;4.60;;
4971;SDS011;2501;51.214;6.768;2022-08-19T14:27:46;6.60;;;4.30;;
4971;SDS011;2501;51.214;6.768;2022-08-19T14:30:20;4.63;;;3.60;;
4971;SDS011;2501;51.214;6.768;2022-08-19T14:32:51;4.22;;;3.83;;
4971;SDS011;2501;51.214;6.768;2022-08-19T14:35:20;10.10;;;4.10;;
4971;SDS011;2501;51.214;6.768;2022-08-19T14:37:52;8.30;;;6.60;;
4971;SDS011;2501;51.214;6.768;2022-08-19T14:40:23;6.60;;;3.50;;
4971;SDS011;2501;51.214;6.768;2022-08-19T14:42:53;5.85;;;3.95;;
4971;SDS011;2501;51.214;6.768;2022-08-19T14:45:24;4.50;;;3.60;;
4971;SDS011;2501;51.214;6.768;2022-08-19T14:47:54;9.10;;;4.20;;
4971;SDS011;2501;51.214;6.768;2022-08-19T14:50:24;6.60;;;4.00;;
4971;SDS011;2501;51.214;6.768;2022-08-19T14:53:00;4.60;;;4.20;;
4971;SDS011;2501;51.214;6.768;2022-08-19T14:55:30;7.25;;;4.10;;
4971;SDS011;2501;51.214;6.768;2022-08-19T14:57:59;8.93;;;4.40;;
4971;SDS011;2501;51.214;6.768;2022-08-19T15:00:28;9.85;;;3.50;;
4971;SDS011;2501;51.214;6.768;2022-08-19T15:02:56;9.38;;;3.65;;
4971;SDS011;2501;51.214;6.768;2022-08-19T15:05:25;6.78;;;3.63;;
4971;SDS011;2501;51.214;6.768;2022-08-19T15:07:54;3.40;;;3.20;;
4971;SDS011;2501;51.214;6.768;2022-08-19T15:10:25;5.00;;;3.40;;
4971;SDS011;2501;51.214;6.768;2022-08-19T15:12:54;4.97;;;3.70;;